Main page
METAR-TAF:

METAR-TAF

Airports :

Le Havre – Octeville Airport

Le Havre, France

latitude: 49-31N, longitude: 000-04E, elevation: 100 m

Current weather observation

The report was made 36 minutes ago, at 07:00 UTC
Wind 18 kt from the West/Northwest
Temperature 13°C
Humidity 94%
Pressure 998 hPa
Visibility: 4800 m
Broken clouds at a height of 800 ft
Overcast at a height of 1200 ft

METAR: LFOH 050700Z AUTO 29018KT 9999 4800 BKN008 OVC012 13/12 Q0998

Time: 09:36 (07:36 UTC)


TAF: missing

Weather observations and forecasts of more than 4000 airports (METAR and TAF reports).

The available stations are represented by yellow and red dots on the map.

Hover mouse over dot to see the name of the station.

Then click to see weather observations and forecasts.

To change the map : click on the green buttons with a black cross to zoom in, on the green button with a dash to zoom out, or on the green arrows for adjacent maps.


METAR-TAF: